Time;durP1;ratioP1;P1;durP2;ratioP2;P2;SDS_P1;SDS_P2;PMS_P1;PMS_P2;Temp;Humidity;BMP_temperature;BMP_pressure;BME280_temperature;BME280_humidity;BME280_pressure;Samples;Min_cycle;Max_cycle;Signal;HPM_P1;HPM_P2
2023/05/17 00:00:09;;;;;;;1.27;1.02;;;;;;;17.46;63.47;96968.34;10372271;28;20037;-25
2023/05/17 00:05:11;;;;;;;3.38;1.05;;;;;;;17.46;63.35;96973.41;10362003;28;20508;-25
2023/05/17 00:10:12;;;;;;;1.25;0.85;;;;;;;17.44;63.29;96970.03;10370004;28;20084;-26
2023/05/17 00:15:13;;;;;;;1.17;0.80;;;;;;;17.42;63.48;96977.59;10369579;28;20096;-25
2023/05/17 00:20:13;;;;;;;1.40;1.10;;;;;;;17.42;63.33;96982.66;10383493;28;20331;-25
2023/05/17 00:25:14;;;;;;;2.15;1.10;;;;;;;17.40;63.28;96984.34;10380348;28;20111;-26
2023/05/17 00:30:14;;;;;;;1.10;0.83;;;;;;;17.41;63.56;96985.22;10380073;28;20034;-25
2023/05/17 00:35:15;;;;;;;1.10;0.70;;;;;;;17.41;63.44;96992.81;10372508;28;20292;-25
2023/05/17 00:40:15;;;;;;;2.57;1.00;;;;;;;17.44;63.01;96990.28;10371556;28;20342;-25
2023/05/17 00:45:16;;;;;;;2.08;0.98;;;;;;;17.44;63.76;96991.16;10353155;28;20288;-25
2023/05/17 00:50:16;;;;;;;2.35;1.52;;;;;;;17.48;63.58;96997.09;10370970;28;20030;-25
2023/05/17 00:55:21;;;;;;;3.00;1.10;;;;;;;17.51;62.86;96997.09;10377417;28;20029;-25
2023/05/17 01:00:21;;;;;;;1.92;0.90;;;;;;;17.51;62.47;96999.63;10365343;28;20485;-25
2023/05/17 01:05:21;;;;;;;1.13;0.97;;;;;;;17.53;62.66;96995.41;10353828;28;20124;-26
2023/05/17 01:10:33;;;;;;;1.53;0.80;;;;;;;17.51;62.73;97003.00;10370408;28;20734;-26
2023/05/17 01:15:38;;;;;;;2.03;0.82;;;;;;;17.52;62.43;97003.84;10378292;28;20304;-26
2023/05/17 01:20:47;;;;;;;3.20;1.00;;;;;;;17.50;62.61;97003.00;10352986;28;20034;-26
2023/05/17 01:26:21;;;;;;;3.40;1.50;;;;;;;17.49;62.72;97004.66;10354684;28;20034;-26
2023/05/17 01:31:22;;;;;;;2.42;1.38;;;;;;;17.45;62.75;97013.09;10378386;28;20034;-26
2023/05/17 01:36:23;;;;;;;1.80;1.00;;;;;;;17.41;62.38;97005.47;10375834;28;20752;-25
2023/05/17 01:41:39;;;;;;;0.80;0.80;;;;;;;17.47;62.81;97029.13;10370680;28;20026;-25
2023/05/17 01:46:41;;;;;;;1.85;1.08;;;;;;;17.46;63.27;97029.09;10370292;28;20394;-25
2023/05/17 01:51:48;;;;;;;2.45;1.42;;;;;;;17.50;63.18;97026.63;10361186;28;20433;-25
2023/05/17 01:56:56;;;;;;;1.95;1.10;;;;;;;17.48;62.69;97032.53;10381540;28;20041;-25
2023/05/17 02:02:05;;;;;;;1.38;0.95;;;;;;;17.46;62.82;97034.16;10359578;28;20037;-25
2023/05/17 02:07:05;;;;;;;4.10;1.20;;;;;;;17.42;62.40;97032.47;10385233;28;20036;-25
2023/05/17 02:12:06;;;;;;;2.13;1.37;;;;;;;17.42;62.61;97030.75;10373463;28;20041;-25
2023/05/17 02:17:07;;;;;;;1.65;1.13;;;;;;;17.40;62.74;97031.59;10369518;28;20033;-25
2023/05/17 02:22:08;;;;;;;3.53;1.03;;;;;;;17.39;62.17;97029.88;10363156;28;20038;-25
2023/05/17 02:27:08;;;;;;;3.17;1.08;;;;;;;17.39;62.55;97027.34;10374807;28;20288;-25
2023/05/17 02:32:09;;;;;;;1.57;1.13;;;;;;;17.38;62.69;97033.25;10384730;28;20034;-25
2023/05/17 02:37:10;;;;;;;1.98;1.33;;;;;;;17.37;62.73;97029.03;10384907;28;20081;-25
2023/05/17 02:42:10;;;;;;;1.87;1.00;;;;;;;17.36;62.24;97038.31;10371567;28;20727;-25
2023/05/17 02:47:11;;;;;;;2.45;1.10;;;;;;;17.37;62.69;97031.56;10372057;28;20406;-25
2023/05/17 02:52:11;;;;;;;1.33;0.90;;;;;;;17.38;63.16;97040.84;10377114;28;20038;-25
2023/05/17 02:57:12;;;;;;;3.42;1.13;;;;;;;17.39;63.12;97042.53;10350827;28;20044;-25
2023/05/17 03:02:13;;;;;;;2.63;0.82;;;;;;;17.37;62.11;97040.00;10353170;28;20042;-25
2023/05/17 03:07:13;;;;;;;1.45;0.90;;;;;;;17.34;62.32;97037.41;10352840;28;20084;-25
2023/05/17 03:12:14;;;;;;;3.38;1.00;;;;;;;17.36;62.19;97042.53;10354987;28;20029;-25
2023/05/17 03:17:15;;;;;;;1.42;0.77;;;;;;;17.32;61.98;97049.19;10360907;28;20565;-25
2023/05/17 03:22:16;;;;;;;1.33;0.80;;;;;;;17.31;61.77;97049.19;10352156;28;20053;-25
2023/05/17 03:27:17;;;;;;;0.82;0.80;;;;;;;17.32;61.99;97045.84;10350727;28;20036;-25
2023/05/17 03:32:18;;;;;;;1.95;0.95;;;;;;;17.32;61.66;97040.78;10354064;28;20037;-25
2023/05/17 03:37:18;;;;;;;0.87;0.77;;;;;;;17.30;61.92;97037.34;10377500;28;20115;-25
2023/05/17 03:42:19;;;;;;;1.20;0.57;;;;;;;17.31;60.93;97036.56;10350059;28;20030;-25
2023/05/17 03:47:24;;;;;;;3.38;0.85;;;;;;;17.29;61.63;97041.59;10349207;28;20167;-25
2023/05/17 03:52:24;;;;;;;3.22;1.40;;;;;;;17.35;62.08;97036.59;10352057;28;20033;-26
2023/05/17 03:57:25;;;;;;;1.97;1.00;;;;;;;17.36;62.48;97040.84;10374508;28;20113;-25
2023/05/17 04:02:25;;;;;;;2.30;1.23;;;;;;;17.40;61.07;97040.03;10380665;28;20276;-25
2023/05/17 04:07:26;;;;;;;1.63;0.80;;;;;;;17.45;59.41;97042.59;10357212;28;20668;-25
2023/05/17 04:12:27;;;;;;;2.87;0.80;;;;;;;17.46;59.83;97050.22;10361943;28;20044;-25
2023/05/17 04:17:27;;;;;;;2.10;0.85;;;;;;;17.47;59.54;97051.06;10389369;28;20763;-26
2023/05/17 04:22:28;;;;;;;1.95;0.85;;;;;;;17.49;58.46;97054.47;10369455;28;20037;-25
2023/05/17 04:27:28;;;;;;;2.20;0.90;;;;;;;17.48;57.95;97053.59;10362331;28;20029;-25
2023/05/17 04:32:29;;;;;;;2.10;0.85;;;;;;;17.47;57.74;97051.06;10363395;28;20415;-26
2023/05/17 04:37:30;;;;;;;2.35;0.80;;;;;;;17.45;57.18;97057.78;10368844;28;20041;-26
2023/05/17 04:42:35;;;;;;;1.83;0.90;;;;;;;17.21;57.82;97067.63;10362569;28;20088;-25
2023/05/17 04:47:37;;;;;;;3.03;1.08;;;;;;;17.06;56.74;97063.25;10361772;28;20117;-26
2023/05/17 04:52:37;;;;;;;2.50;0.68;;;;;;;17.19;57.23;97059.19;10370719;28;20034;-25
2023/05/17 04:57:38;;;;;;;3.10;1.08;;;;;;;17.20;56.47;97068.47;10369325;28;20041;-25
2023/05/17 05:02:41;;;;;;;2.42;0.90;;;;;;;17.33;55.29;97072.84;10352806;28;20421;-26
2023/05/17 05:07:43;;;;;;;2.95;0.80;;;;;;;17.38;56.19;97081.34;10352193;28;20099;-26
2023/05/17 05:12:44;;;;;;;5.53;0.93;;;;;;;17.43;55.74;97080.56;10357066;28;20033;-25
2023/05/17 05:17:44;;;;;;;3.42;1.10;;;;;;;17.45;56.90;97085.63;10359203;28;20100;-26
2023/05/17 05:22:46;;;;;;;2.90;0.95;;;;;;;17.44;57.40;97094.94;10367567;28;20536;-26
2023/05/17 05:27:47;;;;;;;4.45;1.00;;;;;;;17.46;55.92;97100.84;10377160;28;20031;-25
2023/05/17 05:32:49;;;;;;;4.03;0.93;;;;;;;17.30;54.96;97109.06;10394762;28;20034;-25
2023/05/17 05:37:49;;;;;;;7.43;0.95;;;;;;;17.39;54.62;97108.34;10358289;28;20095;-25
2023/05/17 05:42:51;;;;;;;3.03;1.10;;;;;;;17.45;56.73;97105.88;10383088;28;20030;-26
2023/05/17 05:47:51;;;;;;;4.53;0.90;;;;;;;17.47;57.34;97111.78;10352250;28;20080;-26
2023/05/17 05:52:52;;;;;;;4.35;1.08;;;;;;;17.49;58.01;97110.16;10375969;28;20448;-25
2023/05/17 05:57:52;;;;;;;2.77;0.60;;;;;;;17.50;56.52;97116.91;10357998;28;20038;-26
2023/05/17 06:02:52;;;;;;;4.47;1.07;;;;;;;17.51;59.13;97123.66;10377427;28;20444;-25
2023/05/17 06:07:53;;;;;;;2.97;1.43;;;;;;;17.54;58.78;97123.69;10384542;28;20026;-25
2023/05/17 06:12:55;;;;;;;2.17;0.90;;;;;;;17.55;57.60;97120.31;10384029;28;20494;-25
2023/05/17 06:17:56;;;;;;;3.10;0.90;;;;;;;17.51;57.84;97113.53;10376979;28;20038;-25
2023/05/17 06:22:56;;;;;;;1.80;0.80;;;;;;;17.53;57.51;97122.84;10385970;28;20520;-25
2023/05/17 06:27:56;;;;;;;3.10;0.90;;;;;;;17.53;57.04;97129.59;10387592;28;20409;-26
2023/05/17 06:32:57;;;;;;;2.83;0.90;;;;;;;17.52;56.62;97130.44;10376778;28;20044;-25
2023/05/17 06:37:59;;;;;;;1.37;0.70;;;;;;;17.50;55.98;97121.97;10375742;28;20042;-26
2023/05/17 06:43:01;;;;;;;1.85;0.68;;;;;;;17.52;56.13;97126.22;10385336;28;20033;-25
2023/05/17 06:48:01;;;;;;;3.75;2.00;;;;;;;17.51;55.78;97134.63;10390592;28;20045;-25
2023/05/17 06:53:03;;;;;;;2.07;0.90;;;;;;;17.52;56.17;97130.44;10375483;28;20049;-25
2023/05/17 06:58:03;;;;;;;1.95;0.90;;;;;;;17.51;56.11;97132.09;10376833;28;20045;-26
2023/05/17 07:03:03;;;;;;;2.78;1.13;;;;;;;17.51;56.41;97144.75;10381799;28;20034;-26
2023/05/17 07:08:04;;;;;;;1.33;0.70;;;;;;;17.53;58.89;97152.38;10377285;28;20037;-25
2023/05/17 07:13:05;;;;;;;3.15;0.88;;;;;;;17.53;59.17;97157.44;10377342;28;20030;-26
2023/05/17 07:18:05;;;;;;;2.23;1.07;;;;;;;17.56;56.09;97149.91;10375372;28;20047;-25
2023/05/17 07:23:06;;;;;;;2.13;0.73;;;;;;;17.54;55.92;97149.00;10383171;28;20040;-25
2023/05/17 07:28:06;;;;;;;1.88;0.77;;;;;;;17.53;55.92;97152.38;10379125;28;20296;-25
2023/05/17 07:33:07;;;;;;;2.23;0.70;;;;;;;17.50;56.64;97149.81;10383879;28;20101;-26
2023/05/17 07:38:09;;;;;;;2.60;1.10;;;;;;;17.52;56.74;97155.75;10401540;28;20041;-25
2023/05/17 07:43:10;;;;;;;1.02;0.60;;;;;;;17.51;56.54;97151.50;10387220;28;20080;-26
2023/05/17 07:48:10;;;;;;;1.92;0.70;;;;;;;17.52;56.75;97145.63;10375208;28;20066;-25
2023/05/17 07:53:10;;;;;;;1.83;0.80;;;;;;;17.53;56.85;97144.78;10384867;28;20037;-25
2023/05/17 07:58:11;;;;;;;1.75;0.73;;;;;;;17.53;56.79;97142.25;10381598;28;20695;-26
2023/05/17 08:03:11;;;;;;;2.60;0.95;;;;;;;17.53;57.12;97152.38;10390687;28;20041;-25
2023/05/17 08:08:12;;;;;;;3.47;1.10;;;;;;;17.54;57.81;97143.94;10376022;28;20448;-25
2023/05/17 08:13:12;;;;;;;1.58;0.75;;;;;;;17.53;61.40;97153.25;10386693;28;20387;-25
2023/05/17 08:18:12;;;;;;;2.20;0.87;;;;;;;17.52;61.00;97143.94;10373485;28;20490;-26
2023/05/17 08:23:13;;;;;;;1.15;0.63;;;;;;;17.55;58.95;97145.63;10384079;28;20421;-26
2023/05/17 08:28:13;;;;;;;1.43;0.60;;;;;;;17.54;57.93;97149.88;10364440;28;20108;-26
2023/05/17 08:33:14;;;;;;;2.33;0.65;;;;;;;17.54;57.76;97154.94;10381454;28;20406;-25
2023/05/17 08:38:15;;;;;;;0.85;0.65;;;;;;;17.54;57.57;97164.19;10399708;28;20037;-25
2023/05/17 08:43:15;;;;;;;1.13;0.60;;;;;;;17.53;57.52;97172.63;10381305;28;20115;-26
2023/05/17 08:48:18;;;;;;;1.25;0.63;;;;;;;17.53;57.63;97167.56;10397248;28;20029;-25
2023/05/17 08:53:19;;;;;;;1.92;0.52;;;;;;;17.52;57.48;97165.88;10379618;28;20418;-25
2023/05/17 08:58:25;;;;;;;0.88;0.50;;;;;;;17.51;57.42;97164.16;10391838;28;20033;-26
2023/05/17 09:03:26;;;;;;;;;;;;;;;17.52;57.44;97165.88;10372555;28;20412;-24
2023/05/17 09:08:27;;;;;;;1.08;0.70;;;;;;;17.51;57.50;97161.66;10379328;28;20339;-25
2023/05/17 09:13:28;;;;;;;0.82;0.60;;;;;;;17.52;58.15;97160.81;10370782;28;20512;-25
2023/05/17 09:18:31;;;;;;;2.03;0.80;;;;;;;17.52;61.42;97166.72;10376342;28;20457;-26
2023/05/17 09:23:32;;;;;;;1.85;0.65;;;;;;;17.52;61.38;97174.31;10398017;28;20301;-26
2023/05/17 09:28:38;;;;;;;1.20;0.93;;;;;;;17.54;59.41;97174.31;10386195;28;20061;-26
2023/05/17 09:33:45;;;;;;;1.02;0.45;;;;;;;17.54;58.48;97179.38;10370695;28;20033;-26
2023/05/17 09:39:11;;;;;;;0.93;0.60;;;;;;;17.54;58.08;97184.44;10386190;28;20068;-25
2023/05/17 09:44:12;;;;;;;1.13;0.60;;;;;;;17.52;58.03;97174.31;10383742;28;20048;-25
2023/05/17 09:49:14;;;;;;;0.85;0.60;;;;;;;17.52;57.80;97176.00;10377013;28;20028;-25
2023/05/17 09:54:16;;;;;;;1.33;0.77;;;;;;;17.51;57.92;97169.22;10386128;28;20033;-26
2023/05/17 09:59:16;;;;;;;1.58;0.80;;;;;;;17.51;57.69;97174.31;10383970;28;20053;-26
2023/05/17 10:04:22;;;;;;;1.50;0.70;;;;;;;17.51;57.96;97169.22;10391168;28;20040;-26
2023/05/17 10:09:23;;;;;;;2.13;0.60;;;;;;;17.50;57.64;97181.03;10385295;28;20041;-25
2023/05/17 10:14:30;;;;;;;1.58;0.73;;;;;;;17.49;57.82;97175.97;10388674;28;20040;-26
2023/05/17 10:19:31;;;;;;;1.13;0.70;;;;;;;17.54;58.63;97179.38;10377760;28;20057;-26
2023/05/17 10:24:34;;;;;;;0.85;0.57;;;;;;;17.61;61.12;97171.91;10380665;28;20512;-26
2023/05/17 10:29:37;;;;;;;1.90;0.65;;;;;;;17.63;60.07;97169.34;10378987;28;20145;-26
2023/05/17 10:34:38;;;;;;;0.93;0.60;;;;;;;17.62;58.52;97163.47;10368655;28;20030;-25
2023/05/17 10:39:42;;;;;;;1.17;0.50;;;;;;;17.60;58.60;97164.28;10378408;28;20049;-25
2023/05/17 10:44:42;;;;;;;1.23;0.77;;;;;;;17.61;58.34;97160.91;10379665;28;20502;-25
2023/05/17 10:49:46;;;;;;;0.57;0.35;;;;;;;17.61;58.23;97161.75;10376274;28;20041;-26
2023/05/17 10:54:49;;;;;;;1.00;0.75;;;;;;;17.60;58.75;97160.06;10391411;28;20030;-26
2023/05/17 11:00:00;;;;;;;1.17;0.52;;;;;;;17.59;58.34;97160.03;10370534;28;20042;-26
2023/05/17 11:05:01;;;;;;;1.15;0.70;;;;;;;17.59;58.88;97160.03;10390639;28;20160;-26
2023/05/17 11:10:12;;;;;;;0.40;0.30;;;;;;;17.58;58.83;97155.81;10383211;28;20401;-24
2023/05/17 11:15:16;;;;;;;2.58;1.10;;;;;;;17.57;59.91;97160.00;10365651;28;20049;-25
2023/05/17 11:20:25;;;;;;;3.83;1.63;;;;;;;17.58;59.72;97145.69;10366686;28;20040;-25
2023/05/17 11:25:36;;;;;;;2.92;1.25;;;;;;;17.60;59.92;97144.88;10382929;28;20057;-25
2023/05/17 11:30:42;;;;;;;5.65;2.90;;;;;;;17.65;60.74;97148.28;10374642;28;20121;-26
2023/05/17 11:35:43;;;;;;;6.28;1.90;;;;;;;17.66;59.46;97149.16;10385007;28;20041;-25
2023/05/17 11:40:47;;;;;;;2.95;1.30;;;;;;;17.65;58.50;97138.16;10391244;28;20425;-26
2023/05/17 11:45:52;;;;;;;3.78;1.65;;;;;;;17.58;60.08;97130.50;10375679;28;20033;-25
2023/05/17 11:50:55;;;;;;;5.30;2.65;;;;;;;17.56;61.12;97138.06;10389392;28;20509;-25
2023/05/17 11:55:56;;;;;;;6.75;3.17;;;;;;;17.54;60.53;97133.81;10375495;28;20187;-25
2023/05/17 12:01:00;;;;;;;7.25;2.78;;;;;;;17.53;60.69;97137.19;10370811;28;20128;-25
2023/05/17 12:06:10;;;;;;;9.25;2.85;;;;;;;17.48;59.96;97137.13;10388991;28;20049;-25
2023/05/17 12:11:13;;;;;;;4.32;1.92;;;;;;;17.54;58.85;97128.75;10371742;28;20033;-26
2023/05/17 12:16:19;;;;;;;5.15;2.20;;;;;;;17.55;58.88;97130.44;10366575;28;20038;-25
2023/05/17 12:21:20;;;;;;;5.38;2.33;;;;;;;17.54;59.07;97116.97;10376980;28;20030;-25
2023/05/17 12:26:22;;;;;;;3.88;1.77;;;;;;;17.52;59.81;97116.09;10386434;28;20536;-26
2023/05/17 12:31:39;;;;;;;7.70;2.40;;;;;;;17.56;60.62;97120.34;10385037;28;20478;-25
2023/05/17 12:36:40;;;;;;;5.07;2.40;;;;;;;17.57;60.27;97118.69;10378521;28;20037;-26
2023/05/17 12:41:41;;;;;;;6.03;2.20;;;;;;;17.57;60.44;97108.56;10378836;28;20099;-26
2023/05/17 12:46:42;;;;;;;4.47;1.90;;;;;;;17.55;60.80;97115.25;10377778;28;20041;-26
2023/05/17 12:51:44;;;;;;;5.07;2.70;;;;;;;17.53;60.61;97101.75;10370437;28;20033;-25
2023/05/17 12:56:45;;;;;;;5.70;2.33;;;;;;;17.52;60.57;97110.19;10375027;28;20048;-26
2023/05/17 13:01:47;;;;;;;3.83;1.58;;;;;;;17.50;60.35;97109.31;10396356;28;20044;-25
2023/05/17 13:06:53;;;;;;;3.63;1.70;;;;;;;17.51;60.53;97114.38;10395513;28;20459;-25
2023/05/17 13:11:55;;;;;;;2.75;1.73;;;;;;;17.49;60.25;97116.06;10379970;28;20473;-25
2023/05/17 13:16:55;;;;;;;3.80;2.55;;;;;;;17.49;59.99;97115.22;10379353;28;20109;-25
2023/05/17 13:21:56;;;;;;;3.43;1.63;;;;;;;17.50;59.43;97104.25;10383924;28;20048;-25
2023/05/17 13:26:56;;;;;;;4.93;1.97;;;;;;;17.51;58.35;97108.47;10372708;28;20053;-25
2023/05/17 13:31:56;;;;;;;6.43;1.97;;;;;;;17.51;59.79;97100.88;10393325;28;20390;-25
2023/05/17 13:36:57;;;;;;;8.10;2.17;;;;;;;17.52;61.57;97095.84;10377395;28;20077;-25
2023/05/17 13:41:57;;;;;;;6.13;2.03;;;;;;;17.59;61.59;97101.81;10377904;28;20105;-26
2023/05/17 13:46:58;;;;;;;4.72;2.13;;;;;;;17.60;61.46;97094.25;10393486;28;20043;-26
2023/05/17 13:51:59;;;;;;;11.00;2.85;;;;;;;17.55;60.69;97100.06;10394255;28;20099;-26
2023/05/17 13:57:00;;;;;;;4.03;1.88;;;;;;;17.51;60.21;97093.28;10378205;28;20036;-25
2023/05/17 14:02:01;;;;;;;7.72;2.45;;;;;;;17.50;60.15;97092.44;10377818;28;20038;-25
2023/05/17 14:07:04;;;;;;;4.20;1.90;;;;;;;17.49;60.19;97085.69;10384422;28;20034;-25
2023/05/17 14:12:05;;;;;;;8.27;1.90;;;;;;;17.49;60.08;97087.38;10368652;28;20026;-26
2023/05/17 14:17:05;;;;;;;8.05;3.40;;;;;;;17.48;60.17;97093.28;10377535;28;20537;-26
2023/05/17 14:22:07;;;;;;;5.90;2.13;;;;;;;17.46;60.20;97088.19;10384480;28;20079;-25
2023/05/17 14:27:07;;;;;;;5.07;1.70;;;;;;;17.49;60.27;97077.25;10375919;28;20867;-25
2023/05/17 14:32:08;;;;;;;4.33;2.10;;;;;;;17.47;60.11;97071.31;10385189;28;20030;-25
2023/05/17 14:37:09;;;;;;;3.30;1.40;;;;;;;17.45;60.05;97066.25;10379466;28;20030;-25
2023/05/17 14:42:09;;;;;;;3.85;1.95;;;;;;;17.44;59.53;97067.09;10379911;28;20038;-26
2023/05/17 14:47:10;;;;;;;12.13;2.20;;;;;;;17.57;60.88;97060.44;10380172;28;20510;-26
2023/05/17 14:52:13;;;;;;;8.38;2.10;;;;;;;17.63;60.55;97060.47;10367861;28;20060;-25
2023/05/17 14:57:13;;;;;;;7.38;1.75;;;;;;;17.55;60.18;97072.22;10382760;28;20044;-26
2023/05/17 15:02:13;;;;;;;3.05;1.60;;;;;;;17.51;59.69;97062.91;10374811;28;20197;-26
2023/05/17 15:07:14;;;;;;;6.23;1.90;;;;;;;17.50;59.77;97073.88;10372898;28;20042;-25
2023/05/17 15:12:14;;;;;;;8.93;1.77;;;;;;;17.49;59.63;97062.88;10364675;28;20033;-25
2023/05/17 15:17:15;;;;;;;10.00;2.00;;;;;;;17.45;59.59;97057.78;10374399;28;20080;-25
2023/05/17 15:22:16;;;;;;;5.20;1.88;;;;;;;17.52;59.11;97064.59;10374845;28;20041;-25
2023/05/17 15:27:16;;;;;;;6.05;1.90;;;;;;;17.53;59.21;97066.31;10382825;28;20088;-25
2023/05/17 15:32:16;;;;;;;9.97;1.80;;;;;;;17.54;59.26;97068.00;10366850;28;20121;-26
2023/05/17 15:37:17;;;;;;;5.53;2.43;;;;;;;17.56;59.27;97071.41;10378067;28;20096;-25
2023/05/17 15:42:17;;;;;;;5.13;2.07;;;;;;;17.56;59.47;97069.72;10364339;28;20110;-25
2023/05/17 15:47:17;;;;;;;5.20;2.17;;;;;;;17.56;58.00;97067.19;10367371;28;20034;-25
2023/05/17 15:52:18;;;;;;;9.50;2.27;;;;;;;17.63;60.13;97068.06;10368617;28;20099;-26
2023/05/17 15:57:19;;;;;;;5.43;2.17;;;;;;;17.68;57.72;97068.97;10380723;28;20095;-26
2023/05/17 16:02:19;;;;;;;8.27;2.10;;;;;;;17.65;59.02;97072.31;10389449;28;20061;-25
2023/05/17 16:07:24;;;;;;;5.27;1.93;;;;;;;17.61;59.16;97077.34;10374425;28;20112;-25
2023/05/17 16:12:25;;;;;;;9.18;2.08;;;;;;;17.58;59.45;97069.75;10389329;28;20042;-25
2023/05/17 16:17:25;;;;;;;5.53;1.77;;;;;;;17.57;59.06;97068.03;10404632;28;20033;-26
2023/05/17 16:22:26;;;;;;;4.90;1.90;;;;;;;17.56;59.15;97081.53;10389294;28;20288;-25
2023/05/17 16:27:29;;;;;;;5.95;1.85;;;;;;;17.55;59.15;97073.09;10391939;28;20042;-25
2023/05/17 16:32:30;;;;;;;5.15;2.00;;;;;;;17.55;59.11;97073.09;10381650;28;20068;-25
2023/05/17 16:37:30;;;;;;;4.53;1.73;;;;;;;17.54;59.38;97068.00;10378262;28;21897;-26
2023/05/17 16:42:31;;;;;;;4.97;1.50;;;;;;;17.56;59.33;97073.94;10369842;28;20041;-25
2023/05/17 16:47:31;;;;;;;2.47;1.00;;;;;;;17.52;59.91;97087.38;10373921;28;20083;-26
2023/05/17 16:52:32;;;;;;;3.53;1.45;;;;;;;17.51;60.14;97085.69;10385372;28;20065;-26
2023/05/17 16:57:32;;;;;;;4.50;1.60;;;;;;;17.52;60.05;97079.81;10370724;28;20034;-26
2023/05/17 17:02:33;;;;;;;2.77;1.50;;;;;;;17.48;61.48;97070.50;10383849;28;20287;-27
2023/05/17 17:07:33;;;;;;;9.80;1.63;;;;;;;17.49;61.52;97075.56;10387206;28;20720;-26
2023/05/17 17:12:33;;;;;;;6.10;1.80;;;;;;;17.46;61.50;97079.72;10382399;28;20033;-25
2023/05/17 17:17:34;;;;;;;5.10;2.00;;;;;;;17.43;61.36;97070.44;10379516;28;20030;-26
2023/05/17 17:22:34;;;;;;;5.27;1.37;;;;;;;17.45;61.41;97080.56;10387375;28;20129;-26
2023/05/17 17:27:35;;;;;;;3.13;1.90;;;;;;;17.44;61.12;97081.41;10366677;28;20030;-26
2023/05/17 17:32:35;;;;;;;3.97;1.55;;;;;;;17.43;61.43;97088.16;10376782;28;20038;-26
2023/05/17 17:37:35;;;;;;;2.57;1.30;;;;;;;17.44;61.54;97086.47;10385826;28;20034;-26
2023/05/17 17:42:36;;;;;;;6.60;1.60;;;;;;;17.44;61.28;97094.06;10388406;28;20307;-26
2023/05/17 17:47:36;;;;;;;6.22;1.48;;;;;;;17.42;61.67;97090.69;10373902;28;20037;-26
2023/05/17 17:52:37;;;;;;;4.47;1.87;;;;;;;17.44;61.97;97096.59;10374879;28;20034;-36
2023/05/17 17:57:37;;;;;;;3.63;1.67;;;;;;;17.42;62.00;97098.28;10361207;28;20301;-26
2023/05/17 18:02:38;;;;;;;6.70;1.87;;;;;;;17.47;61.67;97106.75;10374940;28;20288;-27
2023/05/17 18:07:38;;;;;;;2.75;1.33;;;;;;;17.47;60.69;97109.25;10373953;28;20338;-25
2023/05/17 18:12:39;;;;;;;2.33;1.42;;;;;;;17.45;61.94;97114.34;10366960;28;20083;-26
2023/05/17 18:17:39;;;;;;;2.33;1.55;;;;;;;17.45;61.85;97105.88;10368282;28;20037;-25
2023/05/17 18:22:40;;;;;;;5.13;1.50;;;;;;;17.43;62.34;97120.22;10366229;28;20413;-25
2023/05/17 18:27:40;;;;;;;5.67;2.50;;;;;;;17.39;60.88;97119.31;10369227;28;20029;-26
2023/05/17 18:32:41;;;;;;;3.03;1.80;;;;;;;17.41;61.79;97127.78;10373672;28;20041;-26
2023/05/17 18:37:41;;;;;;;5.10;2.10;;;;;;;17.44;62.00;97132.03;10380230;28;20034;-26
2023/05/17 18:42:42;;;;;;;4.30;1.53;;;;;;;17.44;62.60;97137.97;10370809;28;20315;-26
2023/05/17 18:47:42;;;;;;;4.18;1.60;;;;;;;17.44;62.90;97142.16;10369764;28;20277;-26
2023/05/17 18:52:43;;;;;;;4.95;1.70;;;;;;;17.45;62.53;97146.38;10386116;28;20030;-26
2023/05/17 18:57:43;;;;;;;3.60;1.77;;;;;;;17.45;62.21;97146.38;10374619;28;20401;-26
2023/05/17 19:02:44;;;;;;;4.33;1.77;;;;;;;17.44;62.05;97153.13;10400005;28;20033;-26
2023/05/17 19:07:44;;;;;;;5.90;1.63;;;;;;;17.43;61.75;97163.25;10374616;28;20032;-26
2023/05/17 19:12:45;;;;;;;6.00;1.50;;;;;;;17.41;61.83;97172.50;10369357;28;20041;-26
2023/05/17 19:17:45;;;;;;;4.45;1.73;;;;;;;17.40;61.68;97170.81;10379899;28;20288;-26
2023/05/17 19:22:46;;;;;;;5.13;2.23;;;;;;;17.40;61.87;97178.41;10365052;28;20030;-26
2023/05/17 19:27:46;;;;;;;6.07;1.83;;;;;;;17.39;62.22;97176.69;10382108;28;20288;-26
2023/05/17 19:32:46;;;;;;;3.40;1.30;;;;;;;17.38;62.06;97182.56;10396493;28;20289;-26
2023/05/17 19:37:47;;;;;;;3.75;1.65;;;;;;;17.41;62.55;97182.63;10391805;28;20456;-26
2023/05/17 19:42:48;;;;;;;2.78;1.48;;;;;;;17.42;62.58;97189.38;10377113;28;20040;-26
2023/05/17 19:47:48;;;;;;;3.00;1.65;;;;;;;17.43;62.18;97198.69;10385921;28;20494;-26
2023/05/17 19:52:49;;;;;;;2.47;1.40;;;;;;;17.42;62.22;97190.22;10381063;28;20422;-26
2023/05/17 19:57:50;;;;;;;6.82;1.70;;;;;;;17.40;62.47;97198.66;10372001;28;21030;-26
2023/05/17 20:02:50;;;;;;;3.95;1.52;;;;;;;17.41;62.32;97202.88;10372946;28;20129;-25
2023/05/17 20:07:51;;;;;;;3.92;1.42;;;;;;;17.40;62.24;97206.25;10367120;28;20502;-26
2023/05/17 20:12:52;;;;;;;4.15;1.40;;;;;;;17.40;62.33;97211.31;10376572;28;20030;-26
2023/05/17 20:17:52;;;;;;;4.40;1.70;;;;;;;17.39;62.15;97204.50;10378415;28;20429;-25
2023/05/17 20:22:53;;;;;;;5.15;1.60;;;;;;;17.40;62.50;97216.38;10394241;28;20030;-26
2023/05/17 20:27:53;;;;;;;5.60;2.15;;;;;;;17.37;62.38;97212.13;10379190;28;20448;-26
2023/05/17 20:32:54;;;;;;;6.68;1.35;;;;;;;17.39;62.38;97205.38;10389158;28;20029;-26
2023/05/17 20:37:54;;;;;;;1.92;1.40;;;;;;;17.43;63.02;97211.34;10377956;28;20034;-26
2023/05/17 20:42:55;;;;;;;5.47;1.33;;;;;;;17.44;62.57;97200.38;10383865;28;20124;-25
2023/05/17 20:47:55;;;;;;;3.45;1.58;;;;;;;17.42;62.16;97209.63;10391509;28;20474;-25
2023/05/17 20:52:56;;;;;;;5.32;1.50;;;;;;;17.41;62.16;97196.13;10378555;28;20033;-26
2023/05/17 20:57:56;;;;;;;3.63;1.60;;;;;;;17.38;62.26;97187.63;10379386;28;20037;-26
2023/05/17 21:02:57;;;;;;;4.07;1.87;;;;;;;17.35;62.35;97203.63;10380359;28;20272;-26
2023/05/17 21:07:58;;;;;;;3.13;1.37;;;;;;;17.36;62.38;97205.34;10386991;28;20272;-26
2023/05/17 21:12:58;;;;;;;7.72;1.60;;;;;;;17.36;62.61;97210.41;10378695;28;20342;-26
2023/05/17 21:17:59;;;;;;;4.68;1.70;;;;;;;17.34;62.48;97196.84;10400576;28;20025;-26
2023/05/17 21:22:59;;;;;;;2.85;1.63;;;;;;;17.32;62.56;97195.16;10403339;28;20076;-26
2023/05/17 21:28:00;;;;;;;7.07;2.23;;;;;;;17.33;62.36;97194.31;10378319;28;20521;-26
2023/05/17 21:33:00;;;;;;;2.67;1.40;;;;;;;17.39;62.62;97200.31;10379136;28;20417;-26
2023/05/17 21:38:01;;;;;;;2.00;1.23;;;;;;;17.40;62.69;97196.94;10378023;28;20304;-26
2023/05/17 21:43:01;;;;;;;5.90;1.73;;;;;;;17.41;62.50;97192.75;10374593;28;20035;-26
2023/05/17 21:48:02;;;;;;;4.97;1.73;;;;;;;17.38;62.16;97187.63;10381303;28;20323;-26
2023/05/17 21:53:03;;;;;;;2.70;1.30;;;;;;;17.34;62.13;97181.66;10384323;28;20053;-26
2023/05/17 21:58:03;;;;;;;2.07;1.40;;;;;;;17.36;62.00;97177.50;10376892;28;20053;-26
2023/05/17 22:03:03;;;;;;;2.10;1.10;;;;;;;17.34;62.30;97176.59;10386366;28;20287;-26
2023/05/17 22:08:04;;;;;;;2.53;1.65;;;;;;;17.33;62.50;97176.59;10382093;28;20041;-26
2023/05/17 22:13:06;;;;;;;5.30;1.52;;;;;;;17.30;62.73;97169.81;10393201;28;20041;-26
2023/05/17 22:18:07;;;;;;;1.40;1.20;;;;;;;17.31;62.25;97171.50;10385404;28;20076;-26
2023/05/17 22:23:08;;;;;;;3.13;1.10;;;;;;;17.31;62.34;97170.69;10371743;28;20057;-25
2023/05/17 22:28:08;;;;;;;6.25;1.40;;;;;;;17.33;62.57;97164.78;10367951;28;20548;-26
2023/05/17 22:33:09;;;;;;;4.83;1.70;;;;;;;17.37;62.73;97166.56;10391995;28;20088;-25
2023/05/17 22:38:09;;;;;;;4.10;1.70;;;;;;;17.39;62.67;97166.56;10372795;28;20413;-25
2023/05/17 22:43:10;;;;;;;2.40;1.57;;;;;;;17.40;62.32;97170.81;10358029;28;20037;-26
2023/05/17 22:48:13;;;;;;;3.25;1.20;;;;;;;17.35;62.30;97165.66;10370632;28;20057;-25
2023/05/17 22:53:16;;;;;;;2.40;1.20;;;;;;;17.33;62.39;97151.28;10367387;28;20045;-26
2023/05/17 22:58:17;;;;;;;6.03;1.50;;;;;;;17.29;62.32;97147.00;10374915;28;20034;-26
2023/05/17 23:03:18;;;;;;;3.00;1.25;;;;;;;17.31;62.45;97148.72;10382960;28;20025;-25
2023/05/17 23:08:21;;;;;;;2.83;1.23;;;;;;;17.30;62.39;97148.69;10384416;28;20030;-26
2023/05/17 23:13:21;;;;;;;2.03;1.13;;;;;;;17.31;62.79;97150.44;10364939;28;20039;-27
2023/05/17 23:18:21;;;;;;;2.63;1.30;;;;;;;17.29;62.56;97152.06;10358813;28;20030;-27